sensor_id;sensor_type;location;lat;lon;timestamp;P1;durP1;ratioP1;P2;durP2;ratioP2
76788;SDS011;65740;52.464;13.446;2023-05-10T00:01:57;3.90;;;3.70;;
76788;SDS011;65740;52.464;13.446;2023-05-10T00:04:23;4.00;;;3.70;;
76788;SDS011;65740;52.464;13.446;2023-05-10T00:06:52;3.50;;;3.30;;
76788;SDS011;65740;52.464;13.446;2023-05-10T00:09:18;3.97;;;3.67;;
76788;SDS011;65740;52.464;13.446;2023-05-10T00:11:44;3.80;;;3.50;;
76788;SDS011;65740;52.464;13.446;2023-05-10T00:14:09;4.20;;;4.00;;
76788;SDS011;65740;52.464;13.446;2023-05-10T00:16:35;3.93;;;3.63;;
76788;SDS011;65740;52.464;13.446;2023-05-10T00:19:00;3.93;;;3.70;;
76788;SDS011;65740;52.464;13.446;2023-05-10T00:21:26;3.93;;;3.63;;
76788;SDS011;65740;52.464;13.446;2023-05-10T00:23:53;3.80;;;3.50;;
76788;SDS011;65740;52.464;13.446;2023-05-10T00:26:19;3.83;;;3.63;;
76788;SDS011;65740;52.464;13.446;2023-05-10T00:28:44;3.80;;;3.50;;
76788;SDS011;65740;52.464;13.446;2023-05-10T00:31:10;3.70;;;3.50;;
76788;SDS011;65740;52.464;13.446;2023-05-10T00:33:36;4.00;;;3.80;;
76788;SDS011;65740;52.464;13.446;2023-05-10T00:36:01;4.30;;;4.00;;
76788;SDS011;65740;52.464;13.446;2023-05-10T00:38:27;4.27;;;3.90;;
76788;SDS011;65740;52.464;13.446;2023-05-10T00:40:53;3.97;;;3.67;;
76788;SDS011;65740;52.464;13.446;2023-05-10T00:43:19;4.37;;;4.07;;
76788;SDS011;65740;52.464;13.446;2023-05-10T00:45:44;4.30;;;4.00;;
76788;SDS011;65740;52.464;13.446;2023-05-10T00:48:10;4.00;;;3.70;;
76788;SDS011;65740;52.464;13.446;2023-05-10T00:50:36;3.90;;;3.60;;
76788;SDS011;65740;52.464;13.446;2023-05-10T00:53:02;4.03;;;3.73;;
76788;SDS011;65740;52.464;13.446;2023-05-10T00:55:28;4.07;;;3.77;;
76788;SDS011;65740;52.464;13.446;2023-05-10T00:57:54;4.10;;;3.80;;
76788;SDS011;65740;52.464;13.446;2023-05-10T01:00:20;4.23;;;3.60;;
76788;SDS011;65740;52.464;13.446;2023-05-10T01:02:46;4.10;;;3.80;;
76788;SDS011;65740;52.464;13.446;2023-05-10T01:05:12;4.00;;;3.70;;
76788;SDS011;65740;52.464;13.446;2023-05-10T01:07:38;4.20;;;3.90;;
76788;SDS011;65740;52.464;13.446;2023-05-10T01:10:05;4.40;;;4.00;;
76788;SDS011;65740;52.464;13.446;2023-05-10T01:12:31;4.10;;;3.80;;
76788;SDS011;65740;52.464;13.446;2023-05-10T01:14:59;3.80;;;3.60;;
76788;SDS011;65740;52.464;13.446;2023-05-10T01:17:26;4.10;;;3.80;;
76788;SDS011;65740;52.464;13.446;2023-05-10T01:19:52;3.93;;;3.70;;
76788;SDS011;65740;52.464;13.446;2023-05-10T01:31:02;4.47;;;4.17;;
76788;SDS011;65740;52.464;13.446;2023-05-10T01:33:55;3.70;;;3.40;;
76788;SDS011;65740;52.464;13.446;2023-05-10T01:36:31;4.00;;;3.70;;
76788;SDS011;65740;52.464;13.446;2023-05-10T01:39:20;4.20;;;3.90;;
76788;SDS011;65740;52.464;13.446;2023-05-10T01:47:27;4.40;;;4.10;;
76788;SDS011;65740;52.464;13.446;2023-05-10T01:49:50;4.17;;;3.87;;
76788;SDS011;65740;52.464;13.446;2023-05-10T01:52:18;4.43;;;4.03;;
76788;SDS011;65740;52.464;13.446;2023-05-10T01:54:55;4.70;;;4.30;;
76788;SDS011;65740;52.464;13.446;2023-05-10T01:57:25;3.80;;;3.60;;
76788;SDS011;65740;52.464;13.446;2023-05-10T01:59:53;4.37;;;4.07;;
76788;SDS011;65740;52.464;13.446;2023-05-10T02:02:20;4.33;;;4.03;;
76788;SDS011;65740;52.464;13.446;2023-05-10T02:04:46;4.20;;;3.90;;
76788;SDS011;65740;52.464;13.446;2023-05-10T02:07:14;4.00;;;3.70;;
76788;SDS011;65740;52.464;13.446;2023-05-10T02:09:41;4.23;;;4.03;;
76788;SDS011;65740;52.464;13.446;2023-05-10T02:12:12;4.60;;;4.30;;
76788;SDS011;65740;52.464;13.446;2023-05-10T02:14:39;4.30;;;4.00;;
76788;SDS011;65740;52.464;13.446;2023-05-10T02:17:07;4.30;;;4.00;;
76788;SDS011;65740;52.464;13.446;2023-05-10T02:19:34;4.57;;;4.27;;
76788;SDS011;65740;52.464;13.446;2023-05-10T02:22:02;3.87;;;3.67;;
76788;SDS011;65740;52.464;13.446;2023-05-10T02:24:28;4.20;;;3.90;;
76788;SDS011;65740;52.464;13.446;2023-05-10T02:26:55;4.10;;;3.90;;
76788;SDS011;65740;52.464;13.446;2023-05-10T02:29:23;4.33;;;4.03;;
76788;SDS011;65740;52.464;13.446;2023-05-10T02:31:51;4.30;;;4.00;;
76788;SDS011;65740;52.464;13.446;2023-05-10T02:34:19;4.10;;;3.80;;
76788;SDS011;65740;52.464;13.446;2023-05-10T02:36:46;4.10;;;3.90;;
76788;SDS011;65740;52.464;13.446;2023-05-10T02:39:12;4.03;;;3.73;;
76788;SDS011;65740;52.464;13.446;2023-05-10T02:41:40;4.03;;;3.83;;
76788;SDS011;65740;52.464;13.446;2023-05-10T02:44:08;4.50;;;4.20;;
76788;SDS011;65740;52.464;13.446;2023-05-10T02:46:35;4.43;;;4.13;;
76788;SDS011;65740;52.464;13.446;2023-05-10T02:49:02;4.13;;;3.83;;
76788;SDS011;65740;52.464;13.446;2023-05-10T02:51:30;4.43;;;4.13;;
76788;SDS011;65740;52.464;13.446;2023-05-10T02:54:00;3.70;;;3.50;;
76788;SDS011;65740;52.464;13.446;2023-05-10T02:56:33;4.50;;;4.20;;
76788;SDS011;65740;52.464;13.446;2023-05-10T02:59:01;4.40;;;4.10;;
76788;SDS011;65740;52.464;13.446;2023-05-10T03:01:26;4.37;;;4.07;;
76788;SDS011;65740;52.464;13.446;2023-05-10T03:03:52;4.47;;;4.17;;
76788;SDS011;65740;52.464;13.446;2023-05-10T03:06:18;4.07;;;3.87;;
76788;SDS011;65740;52.464;13.446;2023-05-10T03:08:44;4.43;;;4.13;;
76788;SDS011;65740;52.464;13.446;2023-05-10T03:13:48;4.53;;;4.23;;
76788;SDS011;65740;52.464;13.446;2023-05-10T03:16:38;4.50;;;4.20;;
76788;SDS011;65740;52.464;13.446;2023-05-10T03:19:16;4.57;;;4.27;;
76788;SDS011;65740;52.464;13.446;2023-05-10T03:21:50;4.70;;;4.40;;
76788;SDS011;65740;52.464;13.446;2023-05-10T03:24:18;4.30;;;4.00;;
76788;SDS011;65740;52.464;13.446;2023-05-10T03:26:46;4.30;;;4.00;;
76788;SDS011;65740;52.464;13.446;2023-05-10T03:29:13;4.00;;;3.70;;
76788;SDS011;65740;52.464;13.446;2023-05-10T03:31:40;4.73;;;4.43;;
76788;SDS011;65740;52.464;13.446;2023-05-10T03:34:06;3.93;;;3.73;;
76788;SDS011;65740;52.464;13.446;2023-05-10T03:36:32;4.00;;;3.70;;
76788;SDS011;65740;52.464;13.446;2023-05-10T03:38:58;4.77;;;4.47;;
76788;SDS011;65740;52.464;13.446;2023-05-10T03:41:24;4.60;;;4.40;;
76788;SDS011;65740;52.464;13.446;2023-05-10T03:43:50;7.83;;;4.37;;
76788;SDS011;65740;52.464;13.446;2023-05-10T03:46:16;4.77;;;4.47;;
76788;SDS011;65740;52.464;13.446;2023-05-10T03:48:41;4.67;;;4.37;;
76788;SDS011;65740;52.464;13.446;2023-05-10T03:51:07;4.97;;;4.67;;
76788;SDS011;65740;52.464;13.446;2023-05-10T03:53:33;4.70;;;4.40;;
76788;SDS011;65740;52.464;13.446;2023-05-10T03:55:59;4.40;;;4.20;;
76788;SDS011;65740;52.464;13.446;2023-05-10T03:58:24;5.07;;;4.60;;
76788;SDS011;65740;52.464;13.446;2023-05-10T04:00:50;4.90;;;4.60;;
76788;SDS011;65740;52.464;13.446;2023-05-10T04:03:17;4.70;;;4.40;;
76788;SDS011;65740;52.464;13.446;2023-05-10T04:05:42;4.97;;;4.57;;
76788;SDS011;65740;52.464;13.446;2023-05-10T04:08:08;4.50;;;4.20;;
76788;SDS011;65740;52.464;13.446;2023-05-10T04:10:34;5.27;;;4.77;;
76788;SDS011;65740;52.464;13.446;2023-05-10T04:12:59;5.10;;;4.70;;
76788;SDS011;65740;52.464;13.446;2023-05-10T04:15:25;4.93;;;4.53;;
76788;SDS011;65740;52.464;13.446;2023-05-10T04:17:51;4.27;;;3.97;;
76788;SDS011;65740;52.464;13.446;2023-05-10T04:20:16;4.60;;;4.30;;
76788;SDS011;65740;52.464;13.446;2023-05-10T04:22:42;4.83;;;4.53;;
76788;SDS011;65740;52.464;13.446;2023-05-10T04:25:08;4.40;;;4.10;;
76788;SDS011;65740;52.464;13.446;2023-05-10T04:27:34;4.70;;;4.40;;
76788;SDS011;65740;52.464;13.446;2023-05-10T04:30:00;4.73;;;4.43;;
76788;SDS011;65740;52.464;13.446;2023-05-10T04:32:25;4.87;;;4.57;;
76788;SDS011;65740;52.464;13.446;2023-05-10T04:34:51;4.47;;;4.17;;
76788;SDS011;65740;52.464;13.446;2023-05-10T04:37:17;4.40;;;4.10;;
76788;SDS011;65740;52.464;13.446;2023-05-10T04:39:42;4.40;;;4.10;;
76788;SDS011;65740;52.464;13.446;2023-05-10T04:42:08;4.57;;;4.27;;
76788;SDS011;65740;52.464;13.446;2023-05-10T04:44:34;4.93;;;4.63;;
76788;SDS011;65740;52.464;13.446;2023-05-10T04:47:00;4.40;;;4.10;;
76788;SDS011;65740;52.464;13.446;2023-05-10T04:49:27;4.30;;;4.00;;
76788;SDS011;65740;52.464;13.446;2023-05-10T04:51:53;4.50;;;4.20;;
76788;SDS011;65740;52.464;13.446;2023-05-10T04:54:18;4.60;;;4.30;;
76788;SDS011;65740;52.464;13.446;2023-05-10T04:56:44;4.73;;;4.43;;
76788;SDS011;65740;52.464;13.446;2023-05-10T04:59:09;4.53;;;4.23;;
76788;SDS011;65740;52.464;13.446;2023-05-10T05:01:35;4.50;;;4.20;;
76788;SDS011;65740;52.464;13.446;2023-05-10T05:04:01;4.80;;;4.50;;
76788;SDS011;65740;52.464;13.446;2023-05-10T05:06:26;4.90;;;4.60;;
76788;SDS011;65740;52.464;13.446;2023-05-10T05:08:52;4.60;;;4.30;;
76788;SDS011;65740;52.464;13.446;2023-05-10T05:11:18;4.50;;;4.20;;
76788;SDS011;65740;52.464;13.446;2023-05-10T05:13:43;4.50;;;4.20;;
76788;SDS011;65740;52.464;13.446;2023-05-10T05:16:09;4.93;;;4.63;;
76788;SDS011;65740;52.464;13.446;2023-05-10T05:18:36;4.67;;;4.37;;
76788;SDS011;65740;52.464;13.446;2023-05-10T05:21:02;5.07;;;4.77;;
76788;SDS011;65740;52.464;13.446;2023-05-10T05:23:27;4.73;;;4.43;;
76788;SDS011;65740;52.464;13.446;2023-05-10T05:25:53;4.70;;;4.40;;
76788;SDS011;65740;52.464;13.446;2023-05-10T05:28:19;5.20;;;4.80;;
76788;SDS011;65740;52.464;13.446;2023-05-10T05:30:45;4.87;;;4.57;;
76788;SDS011;65740;52.464;13.446;2023-05-10T05:33:12;5.27;;;4.97;;
76788;SDS011;65740;52.464;13.446;2023-05-10T05:35:39;4.87;;;4.57;;
76788;SDS011;65740;52.464;13.446;2023-05-10T05:38:04;4.70;;;4.30;;
76788;SDS011;65740;52.464;13.446;2023-05-10T05:40:31;5.17;;;4.80;;
76788;SDS011;65740;52.464;13.446;2023-05-10T05:42:56;5.60;;;5.20;;
76788;SDS011;65740;52.464;13.446;2023-05-10T05:45:22;4.70;;;4.40;;
76788;SDS011;65740;52.464;13.446;2023-05-10T05:47:47;4.23;;;3.93;;
76788;SDS011;65740;52.464;13.446;2023-05-10T05:50:13;4.80;;;4.40;;
76788;SDS011;65740;52.464;13.446;2023-05-10T05:52:39;4.47;;;4.17;;
76788;SDS011;65740;52.464;13.446;2023-05-10T05:55:04;4.47;;;4.20;;
76788;SDS011;65740;52.464;13.446;2023-05-10T05:57:30;4.07;;;3.77;;
76788;SDS011;65740;52.464;13.446;2023-05-10T05:59:56;5.37;;;5.00;;
76788;SDS011;65740;52.464;13.446;2023-05-10T06:02:21;4.43;;;4.13;;
76788;SDS011;65740;52.464;13.446;2023-05-10T06:04:47;5.10;;;4.70;;
76788;SDS011;65740;52.464;13.446;2023-05-10T06:07:12;4.60;;;4.30;;
76788;SDS011;65740;52.464;13.446;2023-05-10T06:09:38;5.37;;;4.97;;
76788;SDS011;65740;52.464;13.446;2023-05-10T06:12:04;4.47;;;4.17;;
76788;SDS011;65740;52.464;13.446;2023-05-10T06:14:30;5.00;;;4.60;;
76788;SDS011;65740;52.464;13.446;2023-05-10T06:16:55;4.43;;;4.13;;
76788;SDS011;65740;52.464;13.446;2023-05-10T06:19:21;4.57;;;4.27;;
76788;SDS011;65740;52.464;13.446;2023-05-10T06:21:47;4.87;;;4.57;;
76788;SDS011;65740;52.464;13.446;2023-05-10T06:24:12;4.83;;;4.53;;
76788;SDS011;65740;52.464;13.446;2023-05-10T06:26:38;4.60;;;4.30;;
76788;SDS011;65740;52.464;13.446;2023-05-10T06:29:03;4.53;;;4.23;;
76788;SDS011;65740;52.464;13.446;2023-05-10T06:31:29;4.83;;;4.43;;
76788;SDS011;65740;52.464;13.446;2023-05-10T06:33:55;4.77;;;4.27;;
76788;SDS011;65740;52.464;13.446;2023-05-10T06:36:20;4.63;;;4.33;;
76788;SDS011;65740;52.464;13.446;2023-05-10T06:38:46;4.70;;;4.40;;
76788;SDS011;65740;52.464;13.446;2023-05-10T06:41:12;4.50;;;4.20;;
76788;SDS011;65740;52.464;13.446;2023-05-10T06:43:38;4.13;;;3.90;;
76788;SDS011;65740;52.464;13.446;2023-05-10T06:46:06;4.53;;;4.23;;
76788;SDS011;65740;52.464;13.446;2023-05-10T06:48:32;5.10;;;4.70;;
76788;SDS011;65740;52.464;13.446;2023-05-10T06:50:57;4.20;;;3.90;;
76788;SDS011;65740;52.464;13.446;2023-05-10T06:53:23;4.50;;;4.20;;
76788;SDS011;65740;52.464;13.446;2023-05-10T06:55:49;4.00;;;3.80;;
76788;SDS011;65740;52.464;13.446;2023-05-10T06:58:14;4.90;;;4.57;;
76788;SDS011;65740;52.464;13.446;2023-05-10T07:00:40;4.90;;;4.50;;
76788;SDS011;65740;52.464;13.446;2023-05-10T07:03:08;4.87;;;4.53;;
76788;SDS011;65740;52.464;13.446;2023-05-10T07:05:37;4.67;;;4.37;;
76788;SDS011;65740;52.464;13.446;2023-05-10T07:08:03;4.20;;;4.00;;
76788;SDS011;65740;52.464;13.446;2023-05-10T07:10:28;4.70;;;4.40;;
76788;SDS011;65740;52.464;13.446;2023-05-10T07:12:54;5.03;;;4.63;;
76788;SDS011;65740;52.464;13.446;2023-05-10T07:15:20;4.77;;;4.47;;
76788;SDS011;65740;52.464;13.446;2023-05-10T07:17:46;4.90;;;4.60;;
76788;SDS011;65740;52.464;13.446;2023-05-10T07:20:12;4.90;;;4.50;;
76788;SDS011;65740;52.464;13.446;2023-05-10T07:22:38;6.33;;;4.83;;
76788;SDS011;65740;52.464;13.446;2023-05-10T07:25:04;5.33;;;4.63;;
76788;SDS011;65740;52.464;13.446;2023-05-10T07:27:30;5.50;;;5.10;;
76788;SDS011;65740;52.464;13.446;2023-05-10T07:29:55;5.13;;;4.63;;
76788;SDS011;65740;52.464;13.446;2023-05-10T07:32:21;5.97;;;4.93;;
76788;SDS011;65740;52.464;13.446;2023-05-10T07:34:47;4.80;;;4.40;;
76788;SDS011;65740;52.464;13.446;2023-05-10T07:37:12;5.53;;;4.77;;
76788;SDS011;65740;52.464;13.446;2023-05-10T07:39:38;5.10;;;4.70;;
76788;SDS011;65740;52.464;13.446;2023-05-10T07:42:03;5.00;;;4.60;;
76788;SDS011;65740;52.464;13.446;2023-05-10T07:44:29;4.73;;;4.33;;
76788;SDS011;65740;52.464;13.446;2023-05-10T07:46:54;5.60;;;5.10;;
76788;SDS011;65740;52.464;13.446;2023-05-10T07:49:20;8.20;;;4.67;;
76788;SDS011;65740;52.464;13.446;2023-05-10T07:51:49;5.83;;;4.90;;
76788;SDS011;65740;52.464;13.446;2023-05-10T07:54:15;5.27;;;4.73;;
76788;SDS011;65740;52.464;13.446;2023-05-10T07:56:40;6.57;;;5.17;;
76788;SDS011;65740;52.464;13.446;2023-05-10T07:59:14;5.20;;;4.67;;
76788;SDS011;65740;52.464;13.446;2023-05-10T08:01:40;4.40;;;4.10;;
76788;SDS011;65740;52.464;13.446;2023-05-10T08:04:06;5.20;;;4.80;;
76788;SDS011;65740;52.464;13.446;2023-05-10T08:06:33;5.47;;;5.07;;
76788;SDS011;65740;52.464;13.446;2023-05-10T08:08:59;5.90;;;4.90;;
76788;SDS011;65740;52.464;13.446;2023-05-10T08:11:24;6.67;;;5.00;;
76788;SDS011;65740;52.464;13.446;2023-05-10T08:13:52;6.47;;;4.67;;
76788;SDS011;65740;52.464;13.446;2023-05-10T08:16:18;12.30;;;9.27;;
76788;SDS011;65740;52.464;13.446;2023-05-10T08:18:44;19.83;;;17.77;;
76788;SDS011;65740;52.464;13.446;2023-05-10T08:21:11;17.43;;;13.70;;
76788;SDS011;65740;52.464;13.446;2023-05-10T08:23:38;14.43;;;13.03;;
76788;SDS011;65740;52.464;13.446;2023-05-10T08:26:04;18.63;;;12.77;;
76788;SDS011;65740;52.464;13.446;2023-05-10T08:28:30;14.43;;;11.93;;
76788;SDS011;65740;52.464;13.446;2023-05-10T08:30:55;12.87;;;11.60;;
76788;SDS011;65740;52.464;13.446;2023-05-10T08:33:21;14.40;;;11.13;;
76788;SDS011;65740;52.464;13.446;2023-05-10T08:35:47;11.53;;;10.33;;
76788;SDS011;65740;52.464;13.446;2023-05-10T08:38:13;11.13;;;10.03;;
76788;SDS011;65740;52.464;13.446;2023-05-10T08:40:40;12.50;;;11.40;;
76788;SDS011;65740;52.464;13.446;2023-05-10T08:43:08;11.07;;;9.97;;
76788;SDS011;65740;52.464;13.446;2023-05-10T08:45:42;10.60;;;9.50;;
76788;SDS011;65740;52.464;13.446;2023-05-10T08:48:10;12.30;;;9.63;;
76788;SDS011;65740;52.464;13.446;2023-05-10T08:50:37;10.20;;;9.20;;
76788;SDS011;65740;52.464;13.446;2023-05-10T08:53:05;10.20;;;9.30;;
76788;SDS011;65740;52.464;13.446;2023-05-10T08:55:35;13.13;;;9.80;;
76788;SDS011;65740;52.464;13.446;2023-05-10T08:58:03;10.30;;;9.10;;
76788;SDS011;65740;52.464;13.446;2023-05-10T09:00:29;10.87;;;9.30;;
76788;SDS011;65740;52.464;13.446;2023-05-10T09:02:55;10.03;;;8.27;;
76788;SDS011;65740;52.464;13.446;2023-05-10T09:05:25;9.83;;;8.83;;
76788;SDS011;65740;52.464;13.446;2023-05-10T09:07:51;8.73;;;7.93;;
76788;SDS011;65740;52.464;13.446;2023-05-10T09:10:17;9.80;;;8.40;;
76788;SDS011;65740;52.464;13.446;2023-05-10T09:12:44;9.23;;;8.43;;
76788;SDS011;65740;52.464;13.446;2023-05-10T09:15:10;10.57;;;7.70;;
76788;SDS011;65740;52.464;13.446;2023-05-10T09:17:38;8.77;;;7.80;;
76788;SDS011;65740;52.464;13.446;2023-05-10T09:20:05;9.20;;;8.40;;
76788;SDS011;65740;52.464;13.446;2023-05-10T09:22:32;10.53;;;7.40;;
76788;SDS011;65740;52.464;13.446;2023-05-10T09:27:30;12.33;;;7.73;;
76788;SDS011;65740;52.464;13.446;2023-05-10T09:29:56;13.60;;;7.77;;
76788;SDS011;65740;52.464;13.446;2023-05-10T09:32:24;8.80;;;7.90;;
76788;SDS011;65740;52.464;13.446;2023-05-10T09:37:41;8.80;;;7.33;;
76788;SDS011;65740;52.464;13.446;2023-05-10T09:40:15;9.17;;;7.73;;
76788;SDS011;65740;52.464;13.446;2023-05-10T09:42:50;9.83;;;7.40;;
76788;SDS011;65740;52.464;13.446;2023-05-10T09:45:23;8.57;;;7.20;;
76788;SDS011;65740;52.464;13.446;2023-05-10T09:47:50;8.47;;;7.50;;
76788;SDS011;65740;52.464;13.446;2023-05-10T09:50:16;7.60;;;6.90;;
76788;SDS011;65740;52.464;13.446;2023-05-10T09:55:13;7.53;;;6.43;;
76788;SDS011;65740;52.464;13.446;2023-05-10T09:57:39;10.50;;;7.57;;
76788;SDS011;65740;52.464;13.446;2023-05-10T10:00:06;14.43;;;8.00;;
76788;SDS011;65740;52.464;13.446;2023-05-10T10:02:32;12.10;;;9.33;;
76788;SDS011;65740;52.464;13.446;2023-05-10T10:05:00;20.60;;;12.43;;
76788;SDS011;65740;52.464;13.446;2023-05-10T10:07:26;23.47;;;14.40;;
76788;SDS011;65740;52.464;13.446;2023-05-10T10:09:53;36.37;;;20.23;;
76788;SDS011;65740;52.464;13.446;2023-05-10T10:12:19;39.83;;;19.70;;
76788;SDS011;65740;52.464;13.446;2023-05-10T10:14:47;47.90;;;25.03;;
76788;SDS011;65740;52.464;13.446;2023-05-10T10:17:15;47.13;;;24.03;;
76788;SDS011;65740;52.464;13.446;2023-05-10T10:19:41;51.27;;;25.83;;
76788;SDS011;65740;52.464;13.446;2023-05-10T10:22:07;66.00;;;25.57;;
76788;SDS011;65740;52.464;13.446;2023-05-10T10:24:33;52.80;;;25.80;;
76788;SDS011;65740;52.464;13.446;2023-05-10T10:27:01;41.67;;;22.60;;
76788;SDS011;65740;52.464;13.446;2023-05-10T10:32:28;54.73;;;25.63;;
76788;SDS011;65740;52.464;13.446;2023-05-10T10:35:14;48.60;;;23.17;;
76788;SDS011;65740;52.464;13.446;2023-05-10T10:37:42;42.17;;;24.17;;
76788;SDS011;65740;52.464;13.446;2023-05-10T10:40:26;53.10;;;25.40;;
76788;SDS011;65740;52.464;13.446;2023-05-10T10:42:53;48.53;;;25.43;;
76788;SDS011;65740;52.464;13.446;2023-05-10T10:45:20;39.10;;;24.30;;
76788;SDS011;65740;52.464;13.446;2023-05-10T10:47:46;43.10;;;23.70;;
76788;SDS011;65740;52.464;13.446;2023-05-10T10:50:12;40.73;;;23.90;;
76788;SDS011;65740;52.464;13.446;2023-05-10T10:52:38;42.00;;;23.97;;
76788;SDS011;65740;52.464;13.446;2023-05-10T10:55:06;42.03;;;23.03;;
76788;SDS011;65740;52.464;13.446;2023-05-10T11:02:49;43.00;;;24.10;;
76788;SDS011;65740;52.464;13.446;2023-05-10T11:08:08;49.50;;;23.80;;
76788;SDS011;65740;52.464;13.446;2023-05-10T11:13:31;39.80;;;23.20;;
76788;SDS011;65740;52.464;13.446;2023-05-10T11:15:59;36.33;;;24.63;;
76788;SDS011;65740;52.464;13.446;2023-05-10T11:21:33;488.97;;;316.50;;
76788;SDS011;65740;52.464;13.446;2023-05-10T11:24:12;211.67;;;121.20;;
76788;SDS011;65740;52.464;13.446;2023-05-10T11:26:39;237.60;;;133.27;;
76788;SDS011;65740;52.464;13.446;2023-05-10T11:29:05;186.37;;;109.67;;
76788;SDS011;65740;52.464;13.446;2023-05-10T11:31:32;170.50;;;105.20;;
76788;SDS011;65740;52.464;13.446;2023-05-10T11:33:58;184.07;;;111.70;;
76788;SDS011;65740;52.464;13.446;2023-05-10T11:36:27;221.30;;;136.40;;
76788;SDS011;65740;52.464;13.446;2023-05-10T11:38:54;223.37;;;129.87;;
76788;SDS011;65740;52.464;13.446;2023-05-10T11:41:21;228.93;;;134.57;;
76788;SDS011;65740;52.464;13.446;2023-05-10T11:43:54;224.47;;;137.97;;
76788;SDS011;65740;52.464;13.446;2023-05-10T11:46:22;215.30;;;132.13;;
76788;SDS011;65740;52.464;13.446;2023-05-10T11:48:53;211.63;;;123.33;;
76788;SDS011;65740;52.464;13.446;2023-05-10T11:51:33;200.63;;;122.60;;
76788;SDS011;65740;52.464;13.446;2023-05-10T11:54:00;194.67;;;116.30;;
76788;SDS011;65740;52.464;13.446;2023-05-10T11:56:29;167.30;;;105.70;;
76788;SDS011;65740;52.464;13.446;2023-05-10T11:58:57;173.10;;;107.00;;
76788;SDS011;65740;52.464;13.446;2023-05-10T12:01:26;145.30;;;93.20;;
76788;SDS011;65740;52.464;13.446;2023-05-10T12:03:53;161.30;;;97.43;;
76788;SDS011;65740;52.464;13.446;2023-05-10T12:06:19;137.03;;;91.43;;
76788;SDS011;65740;52.464;13.446;2023-05-10T12:08:46;128.80;;;84.03;;
76788;SDS011;65740;52.464;13.446;2023-05-10T12:11:18;122.97;;;76.73;;
76788;SDS011;65740;52.464;13.446;2023-05-10T12:13:44;103.23;;;71.27;;
76788;SDS011;65740;52.464;13.446;2023-05-10T12:16:21;109.53;;;71.87;;
76788;SDS011;65740;52.464;13.446;2023-05-10T12:18:51;93.70;;;63.70;;
76788;SDS011;65740;52.464;13.446;2023-05-10T12:21:21;100.13;;;61.67;;
76788;SDS011;65740;52.464;13.446;2023-05-10T12:23:51;96.10;;;61.40;;
76788;SDS011;65740;52.464;13.446;2023-05-10T12:26:21;95.43;;;60.90;;
76788;SDS011;65740;52.464;13.446;2023-05-10T12:28:47;85.80;;;57.50;;
76788;SDS011;65740;52.464;13.446;2023-05-10T12:31:13;91.20;;;55.83;;
76788;SDS011;65740;52.464;13.446;2023-05-10T12:33:39;85.80;;;54.47;;
76788;SDS011;65740;52.464;13.446;2023-05-10T12:36:08;74.07;;;50.90;;
76788;SDS011;65740;52.464;13.446;2023-05-10T12:38:35;71.30;;;50.00;;
76788;SDS011;65740;52.464;13.446;2023-05-10T12:41:06;78.87;;;50.50;;
76788;SDS011;65740;52.464;13.446;2023-05-10T12:43:34;70.77;;;47.20;;
76788;SDS011;65740;52.464;13.446;2023-05-10T12:46:07;61.20;;;38.57;;
76788;SDS011;65740;52.464;13.446;2023-05-10T12:48:37;68.30;;;44.00;;
76788;SDS011;65740;52.464;13.446;2023-05-10T12:51:05;62.83;;;41.83;;
76788;SDS011;65740;52.464;13.446;2023-05-10T12:53:34;56.83;;;40.80;;
76788;SDS011;65740;52.464;13.446;2023-05-10T12:56:00;58.93;;;39.30;;
76788;SDS011;65740;52.464;13.446;2023-05-10T12:58:26;53.63;;;36.90;;
76788;SDS011;65740;52.464;13.446;2023-05-10T13:00:52;51.17;;;36.20;;
76788;SDS011;65740;52.464;13.446;2023-05-10T13:03:19;51.40;;;35.60;;
76788;SDS011;65740;52.464;13.446;2023-05-10T13:05:45;53.00;;;34.70;;
76788;SDS011;65740;52.464;13.446;2023-05-10T13:08:10;49.83;;;33.87;;
76788;SDS011;65740;52.464;13.446;2023-05-10T13:10:36;45.43;;;30.20;;
76788;SDS011;65740;52.464;13.446;2023-05-10T13:13:01;47.13;;;31.90;;
76788;SDS011;65740;52.464;13.446;2023-05-10T13:15:27;41.57;;;29.97;;
76788;SDS011;65740;52.464;13.446;2023-05-10T13:17:53;28.20;;;24.70;;
76788;SDS011;65740;52.464;13.446;2023-05-10T13:20:19;36.33;;;26.03;;
76788;SDS011;65740;52.464;13.446;2023-05-10T13:22:45;39.00;;;26.70;;
76788;SDS011;65740;52.464;13.446;2023-05-10T13:25:11;29.80;;;22.73;;
76788;SDS011;65740;52.464;13.446;2023-05-10T13:27:38;32.67;;;24.30;;
76788;SDS011;65740;52.464;13.446;2023-05-10T13:30:04;34.93;;;25.30;;
76788;SDS011;65740;52.464;13.446;2023-05-10T13:32:31;33.47;;;25.23;;
76788;SDS011;65740;52.464;13.446;2023-05-10T13:34:57;30.50;;;23.40;;
76788;SDS011;65740;52.464;13.446;2023-05-10T13:37:23;25.73;;;21.53;;
76788;SDS011;65740;52.464;13.446;2023-05-10T13:39:48;28.57;;;22.93;;
76788;SDS011;65740;52.464;13.446;2023-05-10T13:42:15;23.17;;;18.10;;
76788;SDS011;65740;52.464;13.446;2023-05-10T13:44:40;28.53;;;20.50;;
76788;SDS011;65740;52.464;13.446;2023-05-10T13:47:06;22.40;;;17.30;;
76788;SDS011;65740;52.464;13.446;2023-05-10T13:49:32;25.77;;;19.63;;
76788;SDS011;65740;52.464;13.446;2023-05-10T13:52:00;22.30;;;18.17;;
76788;SDS011;65740;52.464;13.446;2023-05-10T13:54:33;22.47;;;18.83;;
76788;SDS011;65740;52.464;13.446;2023-05-10T13:57:00;22.27;;;17.60;;
76788;SDS011;65740;52.464;13.446;2023-05-10T13:59:26;21.03;;;17.50;;
76788;SDS011;65740;52.464;13.446;2023-05-10T14:01:51;19.23;;;16.27;;
76788;SDS011;65740;52.464;13.446;2023-05-10T14:04:17;19.60;;;15.97;;
76788;SDS011;65740;52.464;13.446;2023-05-10T14:06:43;20.70;;;16.23;;
76788;SDS011;65740;52.464;13.446;2023-05-10T14:09:08;17.27;;;14.80;;
76788;SDS011;65740;52.464;13.446;2023-05-10T14:11:34;17.90;;;15.13;;
76788;SDS011;65740;52.464;13.446;2023-05-10T14:14:00;18.60;;;14.90;;
76788;SDS011;65740;52.464;13.446;2023-05-10T14:16:25;18.87;;;14.83;;
76788;SDS011;65740;52.464;13.446;2023-05-10T14:18:52;18.50;;;14.23;;
76788;SDS011;65740;52.464;13.446;2023-05-10T14:21:18;17.50;;;12.87;;
76788;SDS011;65740;52.464;13.446;2023-05-10T14:23:43;14.87;;;12.07;;
76788;SDS011;65740;52.464;13.446;2023-05-10T14:26:09;16.67;;;12.40;;
76788;SDS011;65740;52.464;13.446;2023-05-10T14:28:35;17.93;;;13.40;;
76788;SDS011;65740;52.464;13.446;2023-05-10T14:31:00;20.70;;;13.17;;
76788;SDS011;65740;52.464;13.446;2023-05-10T14:33:26;17.13;;;13.50;;
76788;SDS011;65740;52.464;13.446;2023-05-10T14:35:53;14.97;;;11.97;;
76788;SDS011;65740;52.464;13.446;2023-05-10T14:38:19;15.10;;;12.27;;
76788;SDS011;65740;52.464;13.446;2023-05-10T14:40:45;15.80;;;12.10;;
76788;SDS011;65740;52.464;13.446;2023-05-10T14:43:11;14.83;;;9.97;;
76788;SDS011;65740;52.464;13.446;2023-05-10T14:45:36;13.37;;;10.80;;
76788;SDS011;65740;52.464;13.446;2023-05-10T14:48:02;14.80;;;10.53;;
76788;SDS011;65740;52.464;13.446;2023-05-10T14:50:29;12.70;;;10.27;;
76788;SDS011;65740;52.464;13.446;2023-05-10T14:52:55;10.87;;;9.50;;
76788;SDS011;65740;52.464;13.446;2023-05-10T14:55:21;10.57;;;9.30;;
76788;SDS011;65740;52.464;13.446;2023-05-10T14:57:47;14.13;;;9.90;;
76788;SDS011;65740;52.464;13.446;2023-05-10T15:00:14;10.05;;;8.88;;
76788;SDS011;65740;52.464;13.446;2023-05-10T15:02:40;12.37;;;9.63;;
76788;SDS011;65740;52.464;13.446;2023-05-10T15:05:06;10.17;;;9.10;;